Saipan, MP

4:26 PM ChST on May 28, 2015 (GMT +1000)
Red Cross-Airport | | Change Station
CLOSE
Current Station
Personal Weather Station
Location: Saipan, MP
Elevation: 215 ft
Nearby Weather Stations

Elev 215 ft 15.13 °N, 145.72 °E | Updated 15 minutes ago

Rain
Rain
82.0 °F
Feels Like 94 °F
N
10.0
Wind Variable Wind from ESE
Gusts 20.0 mph

Today
High -- | Low -- °F
--% Chance of Precip.
Yesterday
High -- | Low -- °F
Precip. -- in
5:46 AM 6:42 PM
Waxing Gibbous, 73% visible
Pressure 29.88 in
Visibility 10.0 miles
Clouds Few 2500 ft
Scattered Clouds 3200 ft
Heat Index 94 °F
Dew Point 82 °F
Humidity 99%
Rainfall -999.00 in
Snow Depth Not available.
UV 5 out of 12
Pollen Not available.
Air Quality Not available.
Flu Activity
METAR PGSN 280554Z 13006G19KT 10SM FEW025CB SCT032 29/25 A2982 RMK AO2 RAB19E29 SLP118 VCSH W-N CB W-N MOV W P0000 60000 T02890250 10306 20272 56009

More Conditions Fewer Conditions

Pressure 29.88 in
Visibility 10.0 miles
Clouds Few 2500 ft
Scattered Clouds 3200 ft
Heat Index 94 °F
Dew Point 82 °F
Humidity 99%
Rainfall -999.00 in
Snow Depth Not available.
UV 5 out of 12
Pollen Not available.
Air Quality Not available.
Flu Activity
METAR PGSN 280554Z 13006G19KT 10SM FEW025CB SCT032 29/25 A2982 RMK AO2 RAB19E29 SLP118 VCSH W-N CB W-N MOV W P0000 60000 T02890250 10306 20272 56009

More Conditions Fewer Conditions

10-Day Weather Forecast

Almanac

Astronomy

May. 28, 2015 Rise Set
Actual Time
Civil Twilight
Nautical Twilight
Astronomical Twilight
Moon
Length of Visible Light
Length of Day
Tomorrow will be .
, % of the Moon is Illuminated

Today's Extremes

State Highs State Lows

Community

WunderPhotos

Upload Photos

1,824,931 photos uploaded!

WunderBlogs® & News

Nearby

Air Quality

  Air Quality AQ Index Pollutant
Not available.

Snow Depth

Station Depth Elevation

Earthquake Activity

City Distance Mag. Time & Date
Minimum magnitude displayed is 2.5.

Coastal Water Temperatures

Place Temperature

Stations

Nearby Weather Stations

Station Location Temp. Windchill Dew Point Humidity Wind Precip. Elev Updated Type